sensor_id;sensor_type;location;lat;lon;timestamp;P1;durP1;ratioP1;P2;durP2;ratioP2
16462;SDS011;8342;42.736;23.292;2022-07-01T00:00:16;6.70;;;5.53;;
16462;SDS011;8342;42.736;23.292;2022-07-01T00:02:43;8.47;;;5.63;;
16462;SDS011;8342;42.736;23.292;2022-07-01T00:05:10;7.20;;;6.00;;
16462;SDS011;8342;42.736;23.292;2022-07-01T00:07:37;9.63;;;6.60;;
16462;SDS011;8342;42.736;23.292;2022-07-01T00:10:04;5.90;;;5.30;;
16462;SDS011;8342;42.736;23.292;2022-07-01T00:12:32;7.33;;;5.70;;
16462;SDS011;8342;42.736;23.292;2022-07-01T00:15:00;7.30;;;5.70;;
16462;SDS011;8342;42.736;23.292;2022-07-01T00:17:27;8.93;;;6.17;;
16462;SDS011;8342;42.736;23.292;2022-07-01T00:19:54;7.37;;;6.27;;
16462;SDS011;8342;42.736;23.292;2022-07-01T00:22:20;8.37;;;6.40;;
16462;SDS011;8342;42.736;23.292;2022-07-01T00:24:47;9.27;;;5.67;;
16462;SDS011;8342;42.736;23.292;2022-07-01T00:27:14;7.60;;;5.53;;
16462;SDS011;8342;42.736;23.292;2022-07-01T00:29:41;7.13;;;6.07;;
16462;SDS011;8342;42.736;23.292;2022-07-01T00:32:09;8.47;;;6.20;;
16462;SDS011;8342;42.736;23.292;2022-07-01T00:34:36;10.13;;;5.57;;
16462;SDS011;8342;42.736;23.292;2022-07-01T00:37:03;10.77;;;5.67;;
16462;SDS011;8342;42.736;23.292;2022-07-01T00:39:30;8.20;;;6.10;;
16462;SDS011;8342;42.736;23.292;2022-07-01T00:41:59;6.37;;;5.77;;
16462;SDS011;8342;42.736;23.292;2022-07-01T00:44:27;6.00;;;5.27;;
16462;SDS011;8342;42.736;23.292;2022-07-01T00:46:54;8.20;;;6.40;;
16462;SDS011;8342;42.736;23.292;2022-07-01T00:49:23;6.57;;;5.97;;
16462;SDS011;8342;42.736;23.292;2022-07-01T00:51:51;8.07;;;5.77;;
16462;SDS011;8342;42.736;23.292;2022-07-01T00:54:18;8.53;;;6.13;;
16462;SDS011;8342;42.736;23.292;2022-07-01T00:56:45;7.03;;;6.33;;
16462;SDS011;8342;42.736;23.292;2022-07-01T00:59:13;9.90;;;6.13;;
16462;SDS011;8342;42.736;23.292;2022-07-01T01:01:40;8.70;;;6.90;;
16462;SDS011;8342;42.736;23.292;2022-07-01T01:04:07;7.40;;;6.30;;
16462;SDS011;8342;42.736;23.292;2022-07-01T01:06:35;6.70;;;5.93;;
16462;SDS011;8342;42.736;23.292;2022-07-01T01:09:02;9.37;;;5.93;;
16462;SDS011;8342;42.736;23.292;2022-07-01T01:11:29;9.47;;;6.50;;
16462;SDS011;8342;42.736;23.292;2022-07-01T01:13:57;8.03;;;6.67;;
16462;SDS011;8342;42.736;23.292;2022-07-01T01:16:24;8.60;;;6.10;;
16462;SDS011;8342;42.736;23.292;2022-07-01T01:18:51;8.70;;;6.67;;
16462;SDS011;8342;42.736;23.292;2022-07-01T01:21:19;7.90;;;6.57;;
16462;SDS011;8342;42.736;23.292;2022-07-01T01:23:47;8.23;;;6.10;;
16462;SDS011;8342;42.736;23.292;2022-07-01T01:26:14;7.33;;;6.57;;
16462;SDS011;8342;42.736;23.292;2022-07-01T01:28:43;7.97;;;6.73;;
16462;SDS011;8342;42.736;23.292;2022-07-01T01:31:10;7.50;;;6.60;;
16462;SDS011;8342;42.736;23.292;2022-07-01T01:33:37;7.93;;;6.57;;
16462;SDS011;8342;42.736;23.292;2022-07-01T01:36:04;7.50;;;6.33;;
16462;SDS011;8342;42.736;23.292;2022-07-01T01:38:33;8.97;;;6.40;;
16462;SDS011;8342;42.736;23.292;2022-07-01T01:41:01;7.20;;;6.17;;
16462;SDS011;8342;42.736;23.292;2022-07-01T01:43:28;7.07;;;6.17;;
16462;SDS011;8342;42.736;23.292;2022-07-01T01:45:55;6.50;;;5.90;;
16462;SDS011;8342;42.736;23.292;2022-07-01T01:48:21;7.97;;;6.60;;
16462;SDS011;8342;42.736;23.292;2022-07-01T01:50:48;7.00;;;6.23;;
16462;SDS011;8342;42.736;23.292;2022-07-01T01:53:15;6.27;;;5.60;;
16462;SDS011;8342;42.736;23.292;2022-07-01T01:55:43;7.47;;;6.50;;
16462;SDS011;8342;42.736;23.292;2022-07-01T01:58:10;11.13;;;6.33;;
16462;SDS011;8342;42.736;23.292;2022-07-01T02:00:37;7.03;;;6.33;;
16462;SDS011;8342;42.736;23.292;2022-07-01T02:03:04;10.73;;;6.40;;
16462;SDS011;8342;42.736;23.292;2022-07-01T02:05:31;9.30;;;6.60;;
16462;SDS011;8342;42.736;23.292;2022-07-01T02:07:58;7.93;;;6.67;;
16462;SDS011;8342;42.736;23.292;2022-07-01T02:10:25;8.40;;;6.43;;
16462;SDS011;8342;42.736;23.292;2022-07-01T02:12:54;7.33;;;6.37;;
16462;SDS011;8342;42.736;23.292;2022-07-01T02:15:20;8.57;;;6.60;;
16462;SDS011;8342;42.736;23.292;2022-07-01T02:17:47;10.67;;;6.53;;
16462;SDS011;8342;42.736;23.292;2022-07-01T02:20:15;7.47;;;6.60;;
16462;SDS011;8342;42.736;23.292;2022-07-01T02:22:42;11.07;;;6.10;;
16462;SDS011;8342;42.736;23.292;2022-07-01T02:25:09;8.63;;;6.57;;
16462;SDS011;8342;42.736;23.292;2022-07-01T02:27:36;8.13;;;6.77;;
16462;SDS011;8342;42.736;23.292;2022-07-01T02:30:05;7.17;;;6.43;;
16462;SDS011;8342;42.736;23.292;2022-07-01T02:32:32;11.23;;;6.83;;
16462;SDS011;8342;42.736;23.292;2022-07-01T02:34:59;10.40;;;6.80;;
16462;SDS011;8342;42.736;23.292;2022-07-01T02:37:26;8.10;;;7.20;;
16462;SDS011;8342;42.736;23.292;2022-07-01T02:39:53;14.20;;;7.07;;
16462;SDS011;8342;42.736;23.292;2022-07-01T02:42:20;7.40;;;6.37;;
16462;SDS011;8342;42.736;23.292;2022-07-01T02:44:51;8.47;;;6.80;;
16462;SDS011;8342;42.736;23.292;2022-07-01T02:47:20;7.50;;;6.50;;
16462;SDS011;8342;42.736;23.292;2022-07-01T02:49:47;7.27;;;6.43;;
16462;SDS011;8342;42.736;23.292;2022-07-01T02:52:14;9.10;;;6.83;;
16462;SDS011;8342;42.736;23.292;2022-07-01T02:54:42;10.17;;;7.60;;
16462;SDS011;8342;42.736;23.292;2022-07-01T02:57:08;8.97;;;6.87;;
16462;SDS011;8342;42.736;23.292;2022-07-01T02:59:35;9.67;;;7.30;;
16462;SDS011;8342;42.736;23.292;2022-07-01T03:02:02;8.07;;;6.60;;
16462;SDS011;8342;42.736;23.292;2022-07-01T03:04:31;8.03;;;7.20;;
16462;SDS011;8342;42.736;23.292;2022-07-01T03:06:58;8.30;;;6.63;;
16462;SDS011;8342;42.736;23.292;2022-07-01T03:09:25;8.33;;;6.40;;
16462;SDS011;8342;42.736;23.292;2022-07-01T03:11:52;9.73;;;6.20;;
16462;SDS011;8342;42.736;23.292;2022-07-01T03:14:19;7.40;;;6.70;;
16462;SDS011;8342;42.736;23.292;2022-07-01T03:16:46;8.70;;;6.90;;
16462;SDS011;8342;42.736;23.292;2022-07-01T03:19:13;9.07;;;6.73;;
16462;SDS011;8342;42.736;23.292;2022-07-01T03:21:41;8.20;;;6.70;;
16462;SDS011;8342;42.736;23.292;2022-07-01T03:24:08;10.63;;;6.23;;
16462;SDS011;8342;42.736;23.292;2022-07-01T03:26:35;10.20;;;7.13;;
16462;SDS011;8342;42.736;23.292;2022-07-01T03:29:02;8.77;;;6.93;;
16462;SDS011;8342;42.736;23.292;2022-07-01T03:31:29;13.67;;;7.03;;
16462;SDS011;8342;42.736;23.292;2022-07-01T03:33:56;9.37;;;7.07;;
16462;SDS011;8342;42.736;23.292;2022-07-01T03:36:23;9.00;;;7.63;;
16462;SDS011;8342;42.736;23.292;2022-07-01T03:38:51;8.70;;;7.57;;
16462;SDS011;8342;42.736;23.292;2022-07-01T03:41:18;9.20;;;6.83;;
16462;SDS011;8342;42.736;23.292;2022-07-01T03:43:45;9.27;;;6.80;;
16462;SDS011;8342;42.736;23.292;2022-07-01T03:46:12;9.17;;;6.17;;
16462;SDS011;8342;42.736;23.292;2022-07-01T03:48:39;7.33;;;6.53;;
16462;SDS011;8342;42.736;23.292;2022-07-01T03:51:07;9.10;;;7.07;;
16462;SDS011;8342;42.736;23.292;2022-07-01T03:53:33;11.37;;;7.53;;
16462;SDS011;8342;42.736;23.292;2022-07-01T03:56:19;10.97;;;6.97;;
16462;SDS011;8342;42.736;23.292;2022-07-01T03:58:46;11.60;;;6.87;;
16462;SDS011;8342;42.736;23.292;2022-07-01T04:01:12;13.80;;;6.87;;
16462;SDS011;8342;42.736;23.292;2022-07-01T04:03:39;10.17;;;6.73;;
16462;SDS011;8342;42.736;23.292;2022-07-01T04:06:06;8.97;;;7.00;;
16462;SDS011;8342;42.736;23.292;2022-07-01T04:08:34;13.37;;;7.23;;
16462;SDS011;8342;42.736;23.292;2022-07-01T04:11:01;8.27;;;7.30;;
16462;SDS011;8342;42.736;23.292;2022-07-01T04:13:29;12.10;;;7.30;;
16462;SDS011;8342;42.736;23.292;2022-07-01T04:15:57;16.80;;;7.40;;
16462;SDS011;8342;42.736;23.292;2022-07-01T04:18:24;8.50;;;7.23;;
16462;SDS011;8342;42.736;23.292;2022-07-01T04:20:51;9.37;;;7.20;;
16462;SDS011;8342;42.736;23.292;2022-07-01T04:23:35;8.10;;;7.13;;
16462;SDS011;8342;42.736;23.292;2022-07-01T04:26:02;9.60;;;7.87;;
16462;SDS011;8342;42.736;23.292;2022-07-01T04:28:31;12.83;;;7.37;;
16462;SDS011;8342;42.736;23.292;2022-07-01T04:30:57;12.93;;;7.60;;
16462;SDS011;8342;42.736;23.292;2022-07-01T04:33:25;10.80;;;7.03;;
16462;SDS011;8342;42.736;23.292;2022-07-01T04:35:51;14.30;;;7.03;;
16462;SDS011;8342;42.736;23.292;2022-07-01T04:38:18;11.53;;;7.87;;
16462;SDS011;8342;42.736;23.292;2022-07-01T04:40:45;8.57;;;6.83;;
16462;SDS011;8342;42.736;23.292;2022-07-01T04:43:26;9.63;;;7.10;;
16462;SDS011;8342;42.736;23.292;2022-07-01T04:45:55;7.67;;;6.87;;
16462;SDS011;8342;42.736;23.292;2022-07-01T04:48:21;14.93;;;7.70;;
16462;SDS011;8342;42.736;23.292;2022-07-01T04:50:48;11.37;;;7.63;;
16462;SDS011;8342;42.736;23.292;2022-07-01T04:53:15;15.57;;;7.63;;
16462;SDS011;8342;42.736;23.292;2022-07-01T04:55:42;9.17;;;6.83;;
16462;SDS011;8342;42.736;23.292;2022-07-01T04:58:09;9.50;;;7.63;;
16462;SDS011;8342;42.736;23.292;2022-07-01T05:00:36;11.30;;;8.80;;
16462;SDS011;8342;42.736;23.292;2022-07-01T05:03:04;11.53;;;7.63;;
16462;SDS011;8342;42.736;23.292;2022-07-01T05:05:31;9.30;;;7.80;;
16462;SDS011;8342;42.736;23.292;2022-07-01T05:07:58;12.17;;;6.97;;
16462;SDS011;8342;42.736;23.292;2022-07-01T05:10:25;13.57;;;6.93;;
16462;SDS011;8342;42.736;23.292;2022-07-01T05:12:53;10.73;;;7.07;;
16462;SDS011;8342;42.736;23.292;2022-07-01T05:15:20;15.13;;;6.77;;
16462;SDS011;8342;42.736;23.292;2022-07-01T05:17:47;12.93;;;6.70;;
16462;SDS011;8342;42.736;23.292;2022-07-01T05:20:32;9.50;;;7.00;;
16462;SDS011;8342;42.736;23.292;2022-07-01T05:23:16;7.13;;;6.43;;
16462;SDS011;8342;42.736;23.292;2022-07-01T05:25:43;8.13;;;6.10;;
16462;SDS011;8342;42.736;23.292;2022-07-01T05:28:10;10.20;;;6.27;;
16462;SDS011;8342;42.736;23.292;2022-07-01T05:30:37;7.80;;;5.97;;
16462;SDS011;8342;42.736;23.292;2022-07-01T05:33:04;10.77;;;5.93;;
16462;SDS011;8342;42.736;23.292;2022-07-01T05:35:32;9.13;;;6.80;;
16462;SDS011;8342;42.736;23.292;2022-07-01T05:37:59;12.83;;;7.27;;
16462;SDS011;8342;42.736;23.292;2022-07-01T05:40:26;8.70;;;7.23;;
16462;SDS011;8342;42.736;23.292;2022-07-01T05:42:53;9.03;;;6.30;;
16462;SDS011;8342;42.736;23.292;2022-07-01T05:45:20;7.00;;;6.30;;
16462;SDS011;8342;42.736;23.292;2022-07-01T05:47:47;7.37;;;6.43;;
16462;SDS011;8342;42.736;23.292;2022-07-01T05:50:14;11.47;;;7.70;;
16462;SDS011;8342;42.736;23.292;2022-07-01T05:52:42;9.03;;;6.27;;
16462;SDS011;8342;42.736;23.292;2022-07-01T05:55:09;8.60;;;7.07;;
16462;SDS011;8342;42.736;23.292;2022-07-01T05:57:36;7.10;;;6.40;;
16462;SDS011;8342;42.736;23.292;2022-07-01T06:00:03;7.47;;;6.67;;
16462;SDS011;8342;42.736;23.292;2022-07-01T06:02:31;6.83;;;6.20;;
16462;SDS011;8342;42.736;23.292;2022-07-01T06:04:58;9.57;;;6.73;;
16462;SDS011;8342;42.736;23.292;2022-07-01T06:07:25;7.80;;;5.87;;
16462;SDS011;8342;42.736;23.292;2022-07-01T06:09:53;7.30;;;6.53;;
16462;SDS011;8342;42.736;23.292;2022-07-01T06:12:21;9.23;;;6.17;;
16462;SDS011;8342;42.736;23.292;2022-07-01T06:14:48;6.43;;;5.80;;
16462;SDS011;8342;42.736;23.292;2022-07-01T06:17:15;7.50;;;6.47;;
16462;SDS011;8342;42.736;23.292;2022-07-01T06:19:42;11.27;;;6.10;;
16462;SDS011;8342;42.736;23.292;2022-07-01T06:22:09;7.40;;;5.27;;
16462;SDS011;8342;42.736;23.292;2022-07-01T06:24:36;6.30;;;5.43;;
16462;SDS011;8342;42.736;23.292;2022-07-01T06:27:05;10.17;;;6.37;;
16462;SDS011;8342;42.736;23.292;2022-07-01T06:29:32;13.37;;;6.10;;
16462;SDS011;8342;42.736;23.292;2022-07-01T06:31:59;7.70;;;6.10;;
16462;SDS011;8342;42.736;23.292;2022-07-01T06:34:25;8.73;;;6.30;;
16462;SDS011;8342;42.736;23.292;2022-07-01T06:36:53;9.87;;;5.60;;
16462;SDS011;8342;42.736;23.292;2022-07-01T06:39:20;8.93;;;5.83;;
16462;SDS011;8342;42.736;23.292;2022-07-01T06:41:47;9.60;;;5.53;;
16462;SDS011;8342;42.736;23.292;2022-07-01T06:44:16;5.03;;;4.50;;
16462;SDS011;8342;42.736;23.292;2022-07-01T06:46:43;8.20;;;4.30;;
16462;SDS011;8342;42.736;23.292;2022-07-01T06:49:10;8.57;;;4.60;;
16462;SDS011;8342;42.736;23.292;2022-07-01T06:51:37;8.37;;;4.97;;
16462;SDS011;8342;42.736;23.292;2022-07-01T06:54:04;6.73;;;5.23;;
16462;SDS011;8342;42.736;23.292;2022-07-01T06:56:31;6.53;;;5.10;;
16462;SDS011;8342;42.736;23.292;2022-07-01T06:58:58;9.03;;;4.80;;
16462;SDS011;8342;42.736;23.292;2022-07-01T07:01:28;7.00;;;5.33;;
16462;SDS011;8342;42.736;23.292;2022-07-01T07:03:55;7.23;;;5.53;;
16462;SDS011;8342;42.736;23.292;2022-07-01T07:06:22;6.60;;;5.20;;
16462;SDS011;8342;42.736;23.292;2022-07-01T07:08:49;7.50;;;5.20;;
16462;SDS011;8342;42.736;23.292;2022-07-01T07:11:16;11.50;;;5.33;;
16462;SDS011;8342;42.736;23.292;2022-07-01T07:13:45;10.27;;;5.53;;
16462;SDS011;8342;42.736;23.292;2022-07-01T07:16:12;7.87;;;5.50;;
16462;SDS011;8342;42.736;23.292;2022-07-01T07:18:40;10.30;;;7.37;;
16462;SDS011;8342;42.736;23.292;2022-07-01T07:21:07;6.07;;;5.10;;
16462;SDS011;8342;42.736;23.292;2022-07-01T07:23:34;6.33;;;4.93;;
16462;SDS011;8342;42.736;23.292;2022-07-01T07:26:02;5.17;;;4.33;;
16462;SDS011;8342;42.736;23.292;2022-07-01T07:28:29;6.97;;;4.50;;
16462;SDS011;8342;42.736;23.292;2022-07-01T07:30:56;10.27;;;4.43;;
16462;SDS011;8342;42.736;23.292;2022-07-01T07:33:23;5.80;;;4.70;;
16462;SDS011;8342;42.736;23.292;2022-07-01T07:35:51;9.37;;;5.37;;
16462;SDS011;8342;42.736;23.292;2022-07-01T07:38:18;7.87;;;4.93;;
16462;SDS011;8342;42.736;23.292;2022-07-01T07:40:46;7.33;;;5.57;;
16462;SDS011;8342;42.736;23.292;2022-07-01T07:43:16;7.70;;;5.40;;
16462;SDS011;8342;42.736;23.292;2022-07-01T07:45:43;9.20;;;6.37;;
16462;SDS011;8342;42.736;23.292;2022-07-01T07:48:10;6.53;;;5.47;;
16462;SDS011;8342;42.736;23.292;2022-07-01T07:57:23;13.53;;;5.27;;
16462;SDS011;8342;42.736;23.292;2022-07-01T07:59:52;6.50;;;5.07;;
16462;SDS011;8342;42.736;23.292;2022-07-01T08:02:18;10.50;;;4.97;;
16462;SDS011;8342;42.736;23.292;2022-07-01T08:04:45;9.87;;;5.30;;
16462;SDS011;8342;42.736;23.292;2022-07-01T08:07:12;6.23;;;4.93;;
16462;SDS011;8342;42.736;23.292;2022-07-01T08:09:39;8.10;;;5.43;;
16462;SDS011;8342;42.736;23.292;2022-07-01T08:12:11;9.00;;;5.60;;
16462;SDS011;8342;42.736;23.292;2022-07-01T08:14:39;7.43;;;5.20;;
16462;SDS011;8342;42.736;23.292;2022-07-01T08:17:06;5.63;;;4.67;;
16462;SDS011;8342;42.736;23.292;2022-07-01T08:19:34;8.30;;;5.10;;
16462;SDS011;8342;42.736;23.292;2022-07-01T08:22:01;9.63;;;5.40;;
16462;SDS011;8342;42.736;23.292;2022-07-01T08:24:28;8.40;;;5.00;;
16462;SDS011;8342;42.736;23.292;2022-07-01T08:26:55;8.20;;;4.87;;
16462;SDS011;8342;42.736;23.292;2022-07-01T08:29:22;9.87;;;4.87;;
16462;SDS011;8342;42.736;23.292;2022-07-01T08:31:50;7.53;;;5.37;;
16462;SDS011;8342;42.736;23.292;2022-07-01T08:34:17;9.97;;;5.17;;
16462;SDS011;8342;42.736;23.292;2022-07-01T08:36:44;5.80;;;5.30;;
16462;SDS011;8342;42.736;23.292;2022-07-01T08:39:11;5.60;;;5.10;;
16462;SDS011;8342;42.736;23.292;2022-07-01T08:41:39;6.80;;;4.93;;
16462;SDS011;8342;42.736;23.292;2022-07-01T08:44:06;5.43;;;4.80;;
16462;SDS011;8342;42.736;23.292;2022-07-01T08:46:33;5.33;;;4.70;;
16462;SDS011;8342;42.736;23.292;2022-07-01T08:49:02;6.40;;;4.77;;
16462;SDS011;8342;42.736;23.292;2022-07-01T08:51:29;6.67;;;5.23;;
16462;SDS011;8342;42.736;23.292;2022-07-01T08:53:56;6.57;;;5.10;;
16462;SDS011;8342;42.736;23.292;2022-07-01T08:56:25;5.87;;;5.27;;
16462;SDS011;8342;42.736;23.292;2022-07-01T08:59:07;8.20;;;5.30;;
16462;SDS011;8342;42.736;23.292;2022-07-01T09:01:36;5.87;;;4.47;;
16462;SDS011;8342;42.736;23.292;2022-07-01T09:04:14;7.50;;;5.10;;
16462;SDS011;8342;42.736;23.292;2022-07-01T09:06:42;6.47;;;5.00;;
16462;SDS011;8342;42.736;23.292;2022-07-01T09:09:10;5.93;;;5.30;;
16462;SDS011;8342;42.736;23.292;2022-07-01T09:11:43;11.43;;;5.50;;
16462;SDS011;8342;42.736;23.292;2022-07-01T09:14:20;6.73;;;4.67;;
16462;SDS011;8342;42.736;23.292;2022-07-01T09:16:48;7.00;;;5.03;;
16462;SDS011;8342;42.736;23.292;2022-07-01T09:19:17;5.43;;;4.93;;
16462;SDS011;8342;42.736;23.292;2022-07-01T09:21:47;5.10;;;4.70;;
16462;SDS011;8342;42.736;23.292;2022-07-01T09:24:22;5.73;;;4.80;;
16462;SDS011;8342;42.736;23.292;2022-07-01T09:26:54;9.43;;;5.33;;
16462;SDS011;8342;42.736;23.292;2022-07-01T09:29:25;10.60;;;6.10;;
16462;SDS011;8342;42.736;23.292;2022-07-01T09:31:53;5.77;;;5.27;;
16462;SDS011;8342;42.736;23.292;2022-07-01T09:34:21;7.23;;;5.03;;
16462;SDS011;8342;42.736;23.292;2022-07-01T09:36:52;9.33;;;5.20;;
16462;SDS011;8342;42.736;23.292;2022-07-01T09:39:20;5.40;;;4.90;;
16462;SDS011;8342;42.736;23.292;2022-07-01T09:41:47;6.17;;;5.33;;
16462;SDS011;8342;42.736;23.292;2022-07-01T09:44:14;5.43;;;4.87;;
16462;SDS011;8342;42.736;23.292;2022-07-01T09:46:51;8.47;;;4.80;;
16462;SDS011;8342;42.736;23.292;2022-07-01T09:49:19;5.20;;;4.40;;
16462;SDS011;8342;42.736;23.292;2022-07-01T09:51:50;6.27;;;5.00;;
16462;SDS011;8342;42.736;23.292;2022-07-01T09:54:18;6.87;;;4.63;;
16462;SDS011;8342;42.736;23.292;2022-07-01T09:56:45;5.00;;;4.50;;
16462;SDS011;8342;42.736;23.292;2022-07-01T09:59:12;5.27;;;4.77;;
16462;SDS011;8342;42.736;23.292;2022-07-01T10:01:39;5.37;;;4.37;;
16462;SDS011;8342;42.736;23.292;2022-07-01T10:04:07;5.07;;;4.60;;
16462;SDS011;8342;42.736;23.292;2022-07-01T10:06:42;5.27;;;4.67;;
16462;SDS011;8342;42.736;23.292;2022-07-01T10:09:23;9.83;;;5.10;;
16462;SDS011;8342;42.736;23.292;2022-07-01T10:12:08;6.77;;;5.57;;
16462;SDS011;8342;42.736;23.292;2022-07-01T10:14:47;20.47;;;12.10;;
16462;SDS011;8342;42.736;23.292;2022-07-01T10:17:25;8.17;;;6.00;;
16462;SDS011;8342;42.736;23.292;2022-07-01T10:19:54;5.60;;;4.97;;
16462;SDS011;8342;42.736;23.292;2022-07-01T10:22:26;5.37;;;4.90;;
16462;SDS011;8342;42.736;23.292;2022-07-01T10:24:54;5.20;;;4.53;;
16462;SDS011;8342;42.736;23.292;2022-07-01T10:27:21;7.13;;;4.63;;
16462;SDS011;8342;42.736;23.292;2022-07-01T10:29:49;5.53;;;4.17;;
16462;SDS011;8342;42.736;23.292;2022-07-01T10:32:46;8.37;;;3.83;;
16462;SDS011;8342;42.736;23.292;2022-07-01T10:35:13;4.17;;;3.83;;
16462;SDS011;8342;42.736;23.292;2022-07-01T10:40:39;6.67;;;3.90;;
16462;SDS011;8342;42.736;23.292;2022-07-01T10:43:06;5.03;;;4.53;;
16462;SDS011;8342;42.736;23.292;2022-07-01T10:45:40;7.90;;;4.90;;
16462;SDS011;8342;42.736;23.292;2022-07-01T10:48:18;10.17;;;5.13;;
16462;SDS011;8342;42.736;23.292;2022-07-01T10:54:09;7.03;;;6.03;;
16462;SDS011;8342;42.736;23.292;2022-07-01T10:56:40;9.43;;;5.10;;
16462;SDS011;8342;42.736;23.292;2022-07-01T10:59:17;4.70;;;4.30;;
16462;SDS011;8342;42.736;23.292;2022-07-01T11:01:44;7.17;;;4.87;;
16462;SDS011;8342;42.736;23.292;2022-07-01T11:04:11;8.10;;;4.43;;
16462;SDS011;8342;42.736;23.292;2022-07-01T11:06:39;5.40;;;4.90;;
16462;SDS011;8342;42.736;23.292;2022-07-01T11:09:13;6.47;;;4.70;;
16462;SDS011;8342;42.736;23.292;2022-07-01T11:11:40;4.70;;;4.30;;
16462;SDS011;8342;42.736;23.292;2022-07-01T11:14:07;5.10;;;4.67;;
16462;SDS011;8342;42.736;23.292;2022-07-01T11:16:34;7.20;;;5.30;;
16462;SDS011;8342;42.736;23.292;2022-07-01T11:19:01;7.07;;;5.20;;
16462;SDS011;8342;42.736;23.292;2022-07-01T11:21:28;6.63;;;5.93;;
16462;SDS011;8342;42.736;23.292;2022-07-01T11:23:55;6.03;;;5.27;;
16462;SDS011;8342;42.736;23.292;2022-07-01T11:26:24;7.63;;;4.73;;
16462;SDS011;8342;42.736;23.292;2022-07-01T11:28:51;4.57;;;4.10;;
16462;SDS011;8342;42.736;23.292;2022-07-01T11:31:31;4.73;;;4.23;;
16462;SDS011;8342;42.736;23.292;2022-07-01T11:33:59;4.93;;;4.53;;
16462;SDS011;8342;42.736;23.292;2022-07-01T11:36:26;4.93;;;4.43;;
16462;SDS011;8342;42.736;23.292;2022-07-01T11:39:10;7.83;;;5.13;;
16462;SDS011;8342;42.736;23.292;2022-07-01T11:41:53;4.97;;;4.57;;
16462;SDS011;8342;42.736;23.292;2022-07-01T11:44:30;4.67;;;4.10;;
16462;SDS011;8342;42.736;23.292;2022-07-01T11:46:58;4.73;;;4.33;;
16462;SDS011;8342;42.736;23.292;2022-07-01T11:49:25;6.70;;;4.77;;
16462;SDS011;8342;42.736;23.292;2022-07-01T11:51:56;5.27;;;4.23;;
16462;SDS011;8342;42.736;23.292;2022-07-01T11:54:23;5.23;;;4.73;;
16462;SDS011;8342;42.736;23.292;2022-07-01T11:56:50;4.67;;;4.27;;
16462;SDS011;8342;42.736;23.292;2022-07-01T11:59:19;6.23;;;4.30;;
16462;SDS011;8342;42.736;23.292;2022-07-01T12:01:53;4.33;;;4.03;;
16462;SDS011;8342;42.736;23.292;2022-07-01T12:04:20;4.17;;;3.87;;
16462;SDS011;8342;42.736;23.292;2022-07-01T12:06:48;3.90;;;3.60;;
16462;SDS011;8342;42.736;23.292;2022-07-01T12:09:16;5.10;;;4.70;;
16462;SDS011;8342;42.736;23.292;2022-07-01T12:11:45;4.50;;;4.10;;
16462;SDS011;8342;42.736;23.292;2022-07-01T12:14:19;4.57;;;4.10;;
16462;SDS011;8342;42.736;23.292;2022-07-01T12:16:47;4.40;;;4.00;;
16462;SDS011;8342;42.736;23.292;2022-07-01T12:19:16;4.80;;;4.07;;
16462;SDS011;8342;42.736;23.292;2022-07-01T12:21:48;4.70;;;4.30;;
16462;SDS011;8342;42.736;23.292;2022-07-01T12:24:19;4.30;;;3.90;;
16462;SDS011;8342;42.736;23.292;2022-07-01T12:26:48;7.30;;;4.40;;
16462;SDS011;8342;42.736;23.292;2022-07-01T12:29:17;5.47;;;4.17;;
16462;SDS011;8342;42.736;23.292;2022-07-01T12:31:56;7.57;;;5.00;;
16462;SDS011;8342;42.736;23.292;2022-07-01T12:34:35;7.30;;;4.13;;
16462;SDS011;8342;42.736;23.292;2022-07-01T12:37:07;4.20;;;3.63;;
16462;SDS011;8342;42.736;23.292;2022-07-01T12:39:43;4.67;;;3.63;;
16462;SDS011;8342;42.736;23.292;2022-07-01T12:42:20;4.70;;;4.30;;
16462;SDS011;8342;42.736;23.292;2022-07-01T12:44:52;3.37;;;3.07;;
16462;SDS011;8342;42.736;23.292;2022-07-01T12:47:20;3.97;;;3.57;;
16462;SDS011;8342;42.736;23.292;2022-07-01T12:49:48;4.43;;;4.00;;
16462;SDS011;8342;42.736;23.292;2022-07-01T12:52:26;4.40;;;4.00;;
16462;SDS011;8342;42.736;23.292;2022-07-01T12:54:56;6.77;;;4.10;;
16462;SDS011;8342;42.736;23.292;2022-07-01T12:57:29;4.10;;;3.70;;
16462;SDS011;8342;42.736;23.292;2022-07-01T13:00:03;4.23;;;3.93;;
16462;SDS011;8342;42.736;23.292;2022-07-01T13:02:30;4.90;;;4.40;;
16462;SDS011;8342;42.736;23.292;2022-07-01T13:04:57;4.70;;;4.23;;
16462;SDS011;8342;42.736;23.292;2022-07-01T13:07:24;7.00;;;6.30;;
16462;SDS011;8342;42.736;23.292;2022-07-01T13:09:51;5.00;;;3.93;;
16462;SDS011;8342;42.736;23.292;2022-07-01T13:12:18;5.97;;;5.20;;
16462;SDS011;8342;42.736;23.292;2022-07-01T13:14:44;8.33;;;6.27;;
16462;SDS011;8342;42.736;23.292;2022-07-01T13:17:13;6.47;;;5.87;;
16462;SDS011;8342;42.736;23.292;2022-07-01T13:19:41;8.53;;;5.37;;
16462;SDS011;8342;42.736;23.292;2022-07-01T13:22:08;5.70;;;5.20;;
16462;SDS011;8342;42.736;23.292;2022-07-01T13:24:35;8.03;;;5.73;;
16462;SDS011;8342;42.736;23.292;2022-07-01T13:27:02;8.83;;;6.20;;
16462;SDS011;8342;42.736;23.292;2022-07-01T13:29:29;9.37;;;7.03;;
16462;SDS011;8342;42.736;23.292;2022-07-01T13:31:56;6.13;;;4.90;;
16462;SDS011;8342;42.736;23.292;2022-07-01T13:34:25;5.77;;;5.27;;
16462;SDS011;8342;42.736;23.292;2022-07-01T13:36:52;5.60;;;5.10;;
16462;SDS011;8342;42.736;23.292;2022-07-01T13:39:19;5.80;;;5.30;;
16462;SDS011;8342;42.736;23.292;2022-07-01T13:41:45;5.73;;;5.20;;
16462;SDS011;8342;42.736;23.292;2022-07-01T13:44:12;7.13;;;5.97;;
16462;SDS011;8342;42.736;23.292;2022-07-01T13:46:39;6.20;;;5.03;;
16462;SDS011;8342;42.736;23.292;2022-07-01T13:49:06;5.73;;;5.23;;
16462;SDS011;8342;42.736;23.292;2022-07-01T13:51:35;5.57;;;5.07;;
16462;SDS011;8342;42.736;23.292;2022-07-01T13:54:02;6.00;;;5.40;;
16462;SDS011;8342;42.736;23.292;2022-07-01T13:56:29;5.40;;;5.00;;
16462;SDS011;8342;42.736;23.292;2022-07-01T13:58:55;5.43;;;4.93;;
16462;SDS011;8342;42.736;23.292;2022-07-01T14:01:22;6.00;;;5.50;;
16462;SDS011;8342;42.736;23.292;2022-07-01T14:03:50;7.73;;;5.57;;
16462;SDS011;8342;42.736;23.292;2022-07-01T14:06:17;5.30;;;4.80;;
16462;SDS011;8342;42.736;23.292;2022-07-01T14:08:45;8.60;;;5.30;;
16462;SDS011;8342;42.736;23.292;2022-07-01T14:11:12;6.03;;;5.53;;
16462;SDS011;8342;42.736;23.292;2022-07-01T14:13:40;5.80;;;4.90;;
16462;SDS011;8342;42.736;23.292;2022-07-01T14:16:08;7.93;;;5.30;;
16462;SDS011;8342;42.736;23.292;2022-07-01T14:18:35;7.70;;;5.73;;
16462;SDS011;8342;42.736;23.292;2022-07-01T14:21:03;14.73;;;12.27;;
16462;SDS011;8342;42.736;23.292;2022-07-01T14:23:30;5.93;;;5.50;;
16462;SDS011;8342;42.736;23.292;2022-07-01T14:25:59;7.37;;;4.90;;
16462;SDS011;8342;42.736;23.292;2022-07-01T14:28:26;6.53;;;5.93;;
16462;SDS011;8342;42.736;23.292;2022-07-01T14:30:53;6.07;;;5.33;;
16462;SDS011;8342;42.736;23.292;2022-07-01T14:33:20;6.77;;;5.27;;
16462;SDS011;8342;42.736;23.292;2022-07-01T14:35:47;5.30;;;4.90;;
16462;SDS011;8342;42.736;23.292;2022-07-01T14:38:15;6.13;;;5.53;;
16462;SDS011;8342;42.736;23.292;2022-07-01T14:40:42;8.27;;;5.50;;
16462;SDS011;8342;42.736;23.292;2022-07-01T14:43:10;9.63;;;5.67;;
16462;SDS011;8342;42.736;23.292;2022-07-01T14:45:37;8.37;;;5.57;;
16462;SDS011;8342;42.736;23.292;2022-07-01T14:48:04;6.13;;;5.53;;
16462;SDS011;8342;42.736;23.292;2022-07-01T14:50:31;5.53;;;5.03;;
16462;SDS011;8342;42.736;23.292;2022-07-01T14:52:59;5.80;;;5.30;;
16462;SDS011;8342;42.736;23.292;2022-07-01T14:55:26;5.43;;;4.93;;
16462;SDS011;8342;42.736;23.292;2022-07-01T14:57:54;6.00;;;5.00;;
16462;SDS011;8342;42.736;23.292;2022-07-01T15:00:23;5.97;;;5.30;;
16462;SDS011;8342;42.736;23.292;2022-07-01T15:02:50;6.63;;;5.93;;
16462;SDS011;8342;42.736;23.292;2022-07-01T15:05:17;7.70;;;5.50;;